Time;durP1;ratioP1;P1;durP2;ratioP2;P2;SDS_P1;SDS_P2;PMS_P1;PMS_P2;Temp;Humidity;BMP_temperature;BMP_pressure;BME280_temperature;BME280_humidity;BME280_pressure;Samples;Min_cycle;Max_cycle;Signal;HPM_P1;HPM_P2
2022/06/03 00:00:06;;;;;;;8.80;6.77;;;18.20;86.80;;;;;;4999517;28;20480;-85
2022/06/03 00:03:03;;;;;;;8.07;6.27;;;18.20;86.90;;;;;;5028024;28;20440;-85
2022/06/03 00:05:49;;;;;;;7.57;6.90;;;18.20;87.40;;;;;;5036985;28;20460;-83
2022/06/03 00:08:39;;;;;;;7.83;7.20;;;18.20;87.80;;;;;;5042047;28;20427;-84
2022/06/03 00:11:28;;;;;;;8.07;7.30;;;18.10;88.50;;;;;;5020498;28;20507;-84
2022/06/03 00:14:13;;;;;;;7.60;6.80;;;18.10;89.20;;;;;;5025792;28;20457;-85
2022/06/03 00:16:50;;;;;;;7.53;6.77;;;18.10;89.40;;;;;;5027518;28;20445;-84
2022/06/03 00:19:53;;;;;;;6.37;5.70;;;18.00;89.70;;;;;;5028555;28;20541;-86
2022/06/03 00:22:58;;;;;;;5.63;5.10;;;18.00;90.00;;;;;;5028089;28;20440;-85
2022/06/03 00:25:51;;;;;;;5.80;5.30;;;18.00;89.90;;;;;;4958873;28;20437;-85
2022/06/03 00:28:57;;;;;;;6.57;5.30;;;17.90;90.10;;;;;;4973326;29;20449;-85
2022/06/03 00:31:47;;;;;;;6.13;5.03;;;17.90;90.40;;;;;;5017639;28;20484;-85
2022/06/03 00:34:26;;;;;;;6.07;5.57;;;17.90;90.80;;;;;;5025403;28;20500;-86
2022/06/03 00:37:07;;;;;;;7.57;5.57;;;17.80;90.80;;;;;;5019653;28;20448;-86
2022/06/03 00:39:54;;;;;;;6.13;5.60;;;17.80;91.00;;;;;;5024765;28;20445;-85
2022/06/03 00:42:35;;;;;;;6.50;5.90;;;17.80;91.30;;;;;;5022873;28;20448;-86
2022/06/03 00:45:30;;;;;;;6.87;5.20;;;17.70;91.60;;;;;;5026908;28;20526;-86
2022/06/03 00:48:08;;;;;;;6.50;6.00;;;17.70;91.90;;;;;;5021067;28;20439;-85
2022/06/03 00:50:58;;;;;;;8.53;6.10;;;17.70;92.10;;;;;;5023268;28;20486;-85
2022/06/03 00:53:52;;;;;;;8.93;6.70;;;17.60;92.30;;;;;;5016984;28;20462;-86
2022/06/03 00:56:47;;;;;;;7.00;5.83;;;17.60;92.50;;;;;;5018375;28;20438;-85
2022/06/03 00:59:42;;;;;;;7.10;6.40;;;17.60;92.50;;;;;;5027395;28;20446;-86
2022/06/03 01:02:23;;;;;;;8.37;6.70;;;17.60;92.80;;;;;;5020898;28;20450;-84
2022/06/03 01:05:12;;;;;;;6.80;6.20;;;17.60;92.90;;;;;;5027688;28;20468;-84
2022/06/03 01:07:54;;;;;;;6.57;5.93;;;17.50;93.20;;;;;;5021865;28;20818;-85
2022/06/03 01:10:36;;;;;;;6.60;5.17;;;17.50;93.40;;;;;;5025724;28;20447;-84
2022/06/03 01:13:29;;;;;;;6.90;6.13;;;17.50;93.40;;;;;;5046573;28;20468;-84
2022/06/03 01:16:09;;;;;;;6.63;6.03;;;17.50;93.80;;;;;;5043200;28;20442;-85
2022/06/03 01:18:49;;;;;;;6.43;5.77;;;17.40;93.80;;;;;;5039315;28;20435;-85
2022/06/03 01:21:32;;;;;;;6.00;5.57;;;17.40;94.00;;;;;;5024026;28;20450;-84
2022/06/03 01:24:43;;;;;;;5.47;4.97;;;17.40;94.20;;;;;;5027172;28;20851;-84
2022/06/03 01:27:47;;;;;;;5.63;4.63;;;17.40;94.50;;;;;;5022762;28;20923;-84
2022/06/03 01:30:29;;;;;;;5.03;4.53;;;17.20;94.90;;;;;;5028335;28;20705;-85
2022/06/03 01:33:22;;;;;;;6.03;5.43;;;17.20;95.10;;;;;;5030214;28;20932;-85
2022/06/03 01:36:20;;;;;;;7.50;6.80;;;17.20;95.20;;;;;;5031630;28;20441;-85
2022/06/03 01:39:05;;;;;;;5.30;4.70;;;17.20;94.90;;;;;;5028805;28;20495;-85
2022/06/03 01:41:47;;;;;;;6.20;5.70;;;17.10;95.40;;;;;;5027551;28;20442;-85
2022/06/03 01:45:01;;;;;;;8.57;6.67;;;17.10;95.60;;;;;;5036351;28;20445;-84
2022/06/03 01:48:00;;;;;;;9.13;5.87;;;17.00;95.70;;;;;;4951173;29;20446;-84
2022/06/03 01:51:06;;;;;;;6.47;5.87;;;17.00;95.90;;;;;;5017422;28;20442;-85
2022/06/03 01:54:09;;;;;;;5.67;5.27;;;17.00;96.20;;;;;;5014229;28;20538;-84
2022/06/03 01:56:48;;;;;;;6.10;5.60;;;17.00;96.60;;;;;;5010968;28;20454;-84
2022/06/03 01:59:44;;;;;;;5.83;5.30;;;17.00;96.70;;;;;;5026968;28;20449;-85
2022/06/03 02:02:52;;;;;;;6.00;5.40;;;16.90;97.00;;;;;;5041831;28;20425;-84
2022/06/03 02:05:47;;;;;;;5.87;5.47;;;16.90;97.10;;;;;;5036723;28;20449;-85
2022/06/03 02:08:47;;;;;;;6.17;5.67;;;16.80;97.20;;;;;;5029130;28;20444;-85
2022/06/03 02:11:53;;;;;;;5.80;5.20;;;16.80;97.40;;;;;;5040318;28;20481;-84
2022/06/03 02:14:48;;;;;;;7.73;6.23;;;16.80;97.50;;;;;;5020177;28;20834;-85
2022/06/03 02:17:58;;;;;;;5.50;5.00;;;16.80;97.50;;;;;;5023705;28;20438;-85
2022/06/03 02:21:05;;;;;;;5.20;4.70;;;16.80;97.70;;;;;;5016926;28;20461;-86
2022/06/03 02:24:07;;;;;;;7.53;6.60;;;16.80;97.70;;;;;;5020135;28;20462;-85
2022/06/03 02:27:00;;;;;;;7.97;6.37;;;16.80;97.90;;;;;;5022919;28;20438;-85
2022/06/03 02:33:31;;;;;;;5.90;5.50;;;16.70;98.20;;;;;;5021286;28;21004;-85
2022/06/03 02:36:44;;;;;;;5.83;5.23;;;16.70;98.20;;;;;;5023465;28;20452;-86
2022/06/03 02:39:32;;;;;;;6.93;6.40;;;16.70;98.30;;;;;;5034375;28;20464;-85
2022/06/03 02:42:21;;;;;;;6.30;5.80;;;16.70;98.10;;;;;;5050570;28;20428;-84
2022/06/03 02:45:12;;;;;;;6.33;5.73;;;16.70;98.60;;;;;;5034895;28;21004;-84
2022/06/03 02:48:07;;;;;;;6.23;5.73;;;16.60;98.70;;;;;;5018812;28;20509;-84
2022/06/03 02:50:53;;;;;;;6.07;5.57;;;16.70;98.30;;;;;;5014253;28;20443;-85
2022/06/03 02:53:55;;;;;;;5.03;4.57;;;16.60;98.30;;;;;;5021620;28;20472;-85
2022/06/03 02:56:47;;;;;;;6.20;5.70;;;16.60;98.30;;;;;;5023129;28;20941;-85
2022/06/03 02:59:44;;;;;;;6.27;5.73;;;16.60;98.40;;;;;;5025678;28;20449;-85
2022/06/03 03:02:52;;;;;;;5.73;5.27;;;16.60;98.00;;;;;;5022821;28;20433;-85
2022/06/03 03:05:37;;;;;;;6.47;5.90;;;16.60;98.00;;;;;;4994760;28;20456;-85
2022/06/03 03:08:44;;;;;;;7.93;5.43;;;16.60;98.10;;;;;;5040713;28;20433;-85
2022/06/03 03:11:42;;;;;;;5.93;5.53;;;16.60;97.90;;;;;;5025238;28;20474;-83
2022/06/03 03:14:42;;;;;;;6.23;5.70;;;16.60;97.80;;;;;;5024153;28;20472;-84
2022/06/03 03:17:29;;;;;;;5.67;5.17;;;16.60;97.80;;;;;;5001998;28;20800;-84
2022/06/03 03:20:28;;;;;;;5.80;5.30;;;16.70;97.80;;;;;;5029417;28;20441;-85
2022/06/03 03:23:38;;;;;;;8.13;5.67;;;16.70;97.60;;;;;;5035911;28;20433;-84
2022/06/03 03:26:15;;;;;;;6.17;5.57;;;16.70;97.30;;;;;;5012235;28;20418;-85
2022/06/03 03:29:11;;;;;;;6.37;5.77;;;16.70;97.50;;;;;;5040612;28;20428;-83
2022/06/03 03:32:15;;;;;;;6.73;6.23;;;16.60;97.60;;;;;;5048926;28;20471;-84
2022/06/03 03:35:12;;;;;;;6.90;6.30;;;16.60;97.70;;;;;;5012535;28;20437;-84
2022/06/03 03:38:08;;;;;;;6.03;5.63;;;16.70;98.10;;;;;;5057782;28;20443;-85
2022/06/03 03:41:11;;;;;;;6.20;5.70;;;16.60;98.40;;;;;;5044183;28;20442;-85
2022/06/03 03:44:19;;;;;;;6.50;5.90;;;16.50;98.70;;;;;;4990357;28;20454;-83
2022/06/03 03:47:19;;;;;;;6.37;5.80;;;16.50;99.10;;;;;;5045316;28;20447;-85
2022/06/03 03:50:31;;;;;;;6.87;6.27;;;16.50;99.10;;;;;;5021953;28;20453;-84
2022/06/03 03:53:30;;;;;;;6.60;6.00;;;16.40;99.40;;;;;;4974798;28;20492;-85
2022/06/03 03:56:45;;;;;;;6.37;5.77;;;16.50;99.10;;;;;;5033344;28;20422;-85
2022/06/03 03:59:53;;;;;;;6.70;5.97;;;16.50;98.70;;;;;;5032647;28;20438;-84
2022/06/03 04:02:54;;;;;;;6.10;5.60;;;16.50;98.20;;;;;;5050532;28;20429;-84
2022/06/03 04:06:09;;;;;;;6.73;6.23;;;16.50;98.20;;;;;;5023715;28;20445;-84
2022/06/03 04:09:15;;;;;;;7.33;6.67;;;16.50;98.40;;;;;;4985578;28;20444;-85
2022/06/03 04:12:14;;;;;;;6.50;5.80;;;16.30;98.50;;;;;;5029155;28;21020;-85
2022/06/03 04:15:19;;;;;;;5.33;4.93;;;16.20;98.90;;;;;;5026015;28;20472;-85
2022/06/03 04:18:29;;;;;;;7.17;6.53;;;16.30;98.90;;;;;;5031164;28;20445;-85
2022/06/03 04:21:38;;;;;;;8.97;6.60;;;16.30;99.30;;;;;;5043330;28;20441;-85
2022/06/03 04:24:50;;;;;;;10.47;8.23;;;16.20;99.70;;;;;;5007718;28;20469;-85
2022/06/03 04:27:46;;;;;;;9.53;6.77;;;16.10;99.90;;;;;;4959217;28;20528;-86
2022/06/03 04:30:50;;;;;;;9.20;7.47;;;16.20;99.90;;;;;;5045795;28;20488;-84
2022/06/03 04:33:53;;;;;;;8.70;8.00;;;16.30;99.90;;;;;;5041310;28;20502;-84
2022/06/03 04:37:00;;;;;;;9.57;8.73;;;16.30;99.90;;;;;;5027662;28;20782;-85
2022/06/03 04:40:19;;;;;;;11.43;10.10;;;16.30;99.90;;;;;;5031546;28;20769;-84
2022/06/03 04:43:42;;;;;;;11.00;8.73;;;16.50;99.90;;;;;;5030686;28;20431;-83
2022/06/03 04:46:48;;;;;;;19.47;12.27;;;16.50;99.90;;;;;;5028128;28;20460;-84
2022/06/03 04:49:57;;;;;;;23.90;9.90;;;16.60;99.90;;;;;;5026426;28;20564;-83
2022/06/03 04:53:11;;;;;;;22.57;12.83;;;16.60;99.90;;;;;;5020657;28;20481;-84
2022/06/03 04:56:10;;;;;;;13.67;11.67;;;16.70;99.90;;;;;;5025603;28;20820;-84
2022/06/03 04:59:29;;;;;;;19.37;11.90;;;16.70;99.90;;;;;;5033388;28;20426;-82
2022/06/03 05:02:43;;;;;;;15.50;13.23;;;16.70;99.90;;;;;;5048450;28;20475;-84
2022/06/03 05:05:52;;;;;;;15.63;13.00;;;16.80;99.90;;;;;;5023649;28;20455;-84
2022/06/03 05:08:48;;;;;;;20.10;15.43;;;16.90;99.90;;;;;;5017535;28;20453;-85
2022/06/03 05:12:04;;;;;;;15.43;13.93;;;17.00;99.90;;;;;;5023395;28;20468;-84
2022/06/03 05:15:09;;;;;;;21.23;15.40;;;17.40;99.90;;;;;;5025105;28;20465;-84
2022/06/03 05:18:07;;;;;;;13.77;12.43;;;18.20;99.90;;;;;;5017942;28;20437;-84
2022/06/03 05:21:22;;;;;;;14.60;13.23;;;19.00;99.80;;;;;;5020875;28;20442;-84
2022/06/03 05:24:25;;;;;;;13.80;11.83;;;19.60;97.00;;;;;;5009013;28;20499;-85
2022/06/03 05:27:26;;;;;;;13.20;11.73;;;20.30;95.40;;;;;;5039217;28;20502;-84
2022/06/03 05:30:12;;;;;;;12.23;10.47;;;21.00;93.20;;;;;;5022332;28;20445;-84
2022/06/03 05:33:10;;;;;;;12.97;11.77;;;21.30;91.50;;;;;;5018407;28;20489;-84
2022/06/03 05:36:11;;;;;;;12.63;11.43;;;21.50;90.70;;;;;;5022751;28;20450;-85
2022/06/03 05:39:05;;;;;;;12.00;10.83;;;21.90;90.10;;;;;;5024099;28;20443;-85
2022/06/03 05:45:11;;;;;;;12.77;11.37;;;22.80;85.40;;;;;;5021560;28;20468;-86
2022/06/03 05:47:45;;;;;;;14.50;12.30;;;22.90;84.30;;;;;;5028026;28;20445;-85
2022/06/03 05:50:15;;;;;;;14.80;9.40;;;23.40;82.00;;;;;;5031641;28;20441;-86
2022/06/03 05:53:02;;;;;;;11.43;10.43;;;23.80;81.10;;;;;;5025740;28;20481;-86
2022/06/03 05:55:40;;;;;;;12.17;10.70;;;24.00;78.10;;;;;;5021447;28;20454;-86
2022/06/03 05:58:19;;;;;;;13.10;9.87;;;24.50;77.10;;;;;;5018547;28;20445;-86
2022/06/03 06:00:58;;;;;;;12.73;8.30;;;25.00;75.60;;;;;;5026427;28;20442;-87
2022/06/03 06:03:35;;;;;;;10.57;9.57;;;25.30;72.70;;;;;;5020652;28;20492;-86
2022/06/03 06:06:16;;;;;;;10.97;9.07;;;25.50;71.70;;;;;;5022705;28;20817;-85
2022/06/03 06:08:54;;;;;;;13.57;9.90;;;25.40;71.60;;;;;;5023759;28;20510;-85
2022/06/03 06:11:33;;;;;;;10.57;9.40;;;25.50;70.40;;;;;;5029056;28;20890;-85
2022/06/03 06:14:14;;;;;;;11.63;9.60;;;25.40;70.80;;;;;;5031535;28;20492;-84
2022/06/03 06:16:43;;;;;;;10.83;9.57;;;25.20;70.60;;;;;;5048782;28;20447;-85
2022/06/03 06:19:17;;;;;;;10.37;9.33;;;25.60;70.20;;;;;;5046468;28;20436;-84
2022/06/03 06:21:57;;;;;;;10.47;9.37;;;25.70;69.60;;;;;;5045975;28;20434;-85
2022/06/03 06:24:52;;;;;;;8.87;8.07;;;25.80;68.30;;;;;;5024927;28;20485;-85
2022/06/03 06:27:57;;;;;;;8.57;7.87;;;25.90;68.00;;;;;;5028214;28;21265;-85
2022/06/03 06:30:50;;;;;;;8.60;7.80;;;25.20;68.90;;;;;;5034302;28;20461;-85
2022/06/03 06:33:38;;;;;;;8.87;7.90;;;24.90;71.60;;;;;;5022218;28;20896;-86
2022/06/03 06:36:27;;;;;;;8.07;7.33;;;25.60;70.50;;;;;;5026155;28;20424;-85
2022/06/03 06:39:03;;;;;;;9.30;8.33;;;26.60;67.40;;;;;;5026673;28;20441;-85
2022/06/03 06:41:39;;;;;;;10.93;8.77;;;26.30;65.80;;;;;;5031463;28;20468;-85
2022/06/03 06:44:11;;;;;;;10.20;9.17;;;26.00;66.80;;;;;;5008228;28;20462;-85
2022/06/03 06:46:57;;;;;;;9.23;8.20;;;26.00;67.10;;;;;;5030331;28;20427;-85
2022/06/03 06:49:29;;;;;;;9.30;8.33;;;26.30;67.30;;;;;;5058209;22;20546;-86
2022/06/03 06:52:21;;;;;;;10.07;8.97;;;26.70;65.30;;;;;;5050337;28;20440;-85
2022/06/03 06:55:02;;;;;;;9.17;8.00;;;27.00;64.70;;;;;;5033474;28;20453;-86
2022/06/03 06:57:32;;;;;;;10.23;9.17;;;27.70;63.10;;;;;;5043941;28;20524;-84
2022/06/03 07:00:06;;;;;;;8.87;7.97;;;28.20;61.50;;;;;;5054259;28;20465;-84
2022/06/03 07:02:40;;;;;;;11.50;7.60;;;28.50;60.90;;;;;;5052111;28;20499;-84
2022/06/03 07:05:13;;;;;;;8.40;7.60;;;28.80;59.60;;;;;;5051367;28;20508;-84
2022/06/03 07:07:45;;;;;;;8.10;7.40;;;29.30;58.60;;;;;;5035067;28;20450;-84
2022/06/03 07:10:16;;;;;;;7.83;6.80;;;29.30;57.80;;;;;;5004588;28;20455;-84
2022/06/03 07:12:48;;;;;;;8.80;7.93;;;28.80;57.70;;;;;;5001529;28;20960;-85
2022/06/03 07:15:24;;;;;;;8.53;7.83;;;27.90;58.90;;;;;;5003257;28;20883;-84
2022/06/03 07:20:57;;;;;;;7.80;7.20;;;28.80;58.90;;;;;;5000140;28;20458;-85
2022/06/03 07:23:33;;;;;;;10.03;8.20;;;29.10;58.70;;;;;;5001025;28;20827;-85
2022/06/03 07:26:06;;;;;;;8.03;7.20;;;29.70;57.50;;;;;;5002000;28;20454;-86
2022/06/03 07:28:41;;;;;;;7.63;6.93;;;30.40;56.50;;;;;;5001109;28;20818;-86
2022/06/03 07:31:21;;;;;;;8.13;7.53;;;31.00;54.90;;;;;;5008004;28;20449;-86
2022/06/03 07:34:13;;;;;;;8.70;6.97;;;30.60;54.50;;;;;;5018543;28;20516;-85
2022/06/03 07:36:45;;;;;;;10.07;8.17;;;30.30;55.00;;;;;;5020978;28;20457;-84
2022/06/03 07:39:35;;;;;;;7.70;7.00;;;30.70;54.30;;;;;;5019974;28;20477;-84
2022/06/03 07:42:08;;;;;;;5.33;4.83;;;30.90;54.70;;;;;;5020256;28;20447;-85
2022/06/03 07:44:46;;;;;;;6.10;5.50;;;30.80;54.90;;;;;;5033019;28;20567;-85
2022/06/03 07:47:18;;;;;;;7.87;6.03;;;31.30;54.20;;;;;;5035047;28;20440;-85
2022/06/03 07:49:53;;;;;;;7.13;6.20;;;32.20;52.80;;;;;;5030763;28;20669;-85
2022/06/03 07:52:28;;;;;;;7.40;6.17;;;33.20;51.10;;;;;;5036173;28;20447;-84
2022/06/03 07:54:57;;;;;;;7.23;5.93;;;34.10;49.40;;;;;;5048835;28;20441;-84
2022/06/03 07:57:27;;;;;;;6.80;5.60;;;32.90;49.60;;;;;;5043786;28;20441;-84
2022/06/03 07:59:57;;;;;;;6.60;6.00;;;32.90;50.10;;;;;;5042003;28;20461;-85
2022/06/03 08:02:26;;;;;;;7.07;5.90;;;33.20;50.20;;;;;;5040633;28;20964;-85
2022/06/03 08:05:05;;;;;;;7.20;5.50;;;33.70;49.40;;;;;;5040971;28;20445;-85
2022/06/03 08:13:06;;;;;;;5.20;4.77;;;33.40;49.00;;;;;;5043890;28;20541;-86
2022/06/03 08:15:36;;;;;;;5.90;5.30;;;33.10;49.50;;;;;;5058963;28;20420;-86
2022/06/03 08:18:06;;;;;;;5.03;4.37;;;32.70;49.90;;;;;;5050166;28;20453;-84
2022/06/03 08:20:38;;;;;;;5.93;4.90;;;32.40;51.10;;;;;;5053157;28;20460;-84
2022/06/03 08:23:06;;;;;;;5.67;4.57;;;32.70;50.70;;;;;;5042216;28;20520;-86
2022/06/03 08:25:39;;;;;;;5.30;4.80;;;33.50;49.80;;;;;;5047005;28;20830;-85
2022/06/03 08:28:09;;;;;;;4.70;4.30;;;34.50;48.40;;;;;;5054957;28;20475;-85
2022/06/03 08:30:36;;;;;;;4.67;4.30;;;34.80;47.50;;;;;;5042440;28;20469;-85
2022/06/03 08:33:07;;;;;;;7.27;4.60;;;35.40;46.20;;;;;;5049101;28;20488;-84
2022/06/03 08:35:39;;;;;;;4.60;4.20;;;35.30;45.90;;;;;;5049536;28;20452;-85
2022/06/03 08:38:10;;;;;;;4.60;4.30;;;35.80;45.90;;;;;;5028160;28;20444;-84
2022/06/03 08:40:48;;;;;;;4.57;4.13;;;35.40;45.70;;;;;;5017928;28;20549;-85
2022/06/03 08:43:27;;;;;;;4.90;4.50;;;35.50;46.00;;;;;;5023043;28;20437;-85
2022/06/03 08:45:57;;;;;;;4.50;4.10;;;35.80;45.40;;;;;;5011348;28;20447;-84
2022/06/03 08:48:30;;;;;;;5.83;4.57;;;36.60;45.20;;;;;;5009444;28;20454;-84
2022/06/03 08:50:59;;;;;;;4.90;4.50;;;37.00;44.50;;;;;;5006912;28;20454;-85
2022/06/03 08:53:33;;;;;;;4.17;3.87;;;36.40;44.70;;;;;;5016536;28;20613;-84
2022/06/03 08:56:05;;;;;;;4.87;4.47;;;36.60;44.70;;;;;;5008661;28;20447;-84
2022/06/03 08:58:41;;;;;;;4.87;4.47;;;37.10;44.10;;;;;;5009369;28;20454;-84
2022/06/03 09:01:17;;;;;;;4.80;4.40;;;38.30;43.30;;;;;;5006648;28;20441;-84
2022/06/03 09:03:52;;;;;;;4.40;4.00;;;38.20;42.90;;;;;;5014064;28;20449;-84
2022/06/03 09:06:36;;;;;;;5.10;4.67;;;37.30;43.30;;;;;;5020511;28;20443;-84
2022/06/03 09:09:09;;;;;;;4.60;4.20;;;35.70;45.50;;;;;;5020610;28;20462;-83
2022/06/03 09:11:42;;;;;;;4.80;4.50;;;36.10;45.60;;;;;;5014030;28;20679;-85
2022/06/03 09:14:18;;;;;;;4.43;4.10;;;36.10;45.30;;;;;;5014957;28;20573;-84
2022/06/03 09:16:48;;;;;;;4.87;4.43;;;35.70;46.00;;;;;;5014140;28;20434;-85
2022/06/03 09:19:21;;;;;;;5.30;4.83;;;36.00;46.00;;;;;;5018026;28;20474;-84
2022/06/03 09:21:51;;;;;;;4.67;4.30;;;35.90;46.10;;;;;;5008793;28;20441;-84
2022/06/03 09:24:21;;;;;;;4.67;4.37;;;35.80;45.50;;;;;;5011064;28;20440;-85
2022/06/03 09:26:52;;;;;;;5.57;5.07;;;35.10;46.20;;;;;;5006759;28;20450;-85
2022/06/03 09:29:20;;;;;;;5.20;4.80;;;35.00;46.50;;;;;;5007903;28;20474;-84
2022/06/03 09:31:51;;;;;;;5.40;4.27;;;36.10;46.20;;;;;;5008919;28;20435;-83
2022/06/03 09:34:25;;;;;;;6.63;4.40;;;36.50;45.30;;;;;;5009608;28;20474;-85
2022/06/03 09:36:52;;;;;;;4.80;4.40;;;36.50;44.80;;;;;;5017222;28;20435;-85
2022/06/03 09:39:20;;;;;;;4.93;4.60;;;36.70;44.70;;;;;;5017214;28;20451;-85
2022/06/03 09:41:53;;;;;;;5.40;4.90;;;37.90;43.90;;;;;;5013610;28;20458;-85
2022/06/03 09:44:21;;;;;;;5.00;4.20;;;37.60;44.00;;;;;;5006573;28;20431;-85
2022/06/03 09:46:58;;;;;;;4.70;4.30;;;39.10;42.90;;;;;;5026675;28;20427;-84
2022/06/03 09:49:28;;;;;;;4.80;4.30;;;39.10;41.50;;;;;;5019198;28;20474;-84
2022/06/03 09:51:59;;;;;;;5.57;4.03;;;39.10;41.70;;;;;;5006640;28;20446;-84
2022/06/03 09:54:29;;;;;;;4.37;4.07;;;39.10;41.30;;;;;;5006773;28;20559;-86
2022/06/03 09:57:00;;;;;;;4.67;4.27;;;39.50;41.00;;;;;;5008486;28;20482;-85
2022/06/03 09:59:29;;;;;;;5.33;4.90;;;38.20;42.40;;;;;;5007577;28;20545;-85
2022/06/03 10:01:56;;;;;;;5.40;3.90;;;38.80;42.10;;;;;;5009217;28;20530;-85
2022/06/03 10:04:24;;;;;;;4.10;3.70;;;39.30;40.60;;;;;;5003829;28;20439;-84
2022/06/03 10:06:53;;;;;;;4.00;3.67;;;40.90;39.50;;;;;;5012434;28;20449;-84
2022/06/03 10:17:40;;;;;;;4.00;3.70;;;38.10;39.70;;;;;;5002158;28;20441;-82
2022/06/03 10:20:09;;;;;;;3.87;3.57;;;38.20;40.10;;;;;;5020898;28;20461;-84
2022/06/03 10:22:37;;;;;;;4.57;4.27;;;39.70;39.10;;;;;;5014215;28;20500;-84
2022/06/03 10:25:05;;;;;;;3.63;3.43;;;41.80;37.30;;;;;;5017591;28;20935;-83
2022/06/03 10:27:32;;;;;;;4.60;4.20;;;41.40;36.90;;;;;;5010667;28;20443;-85
2022/06/03 10:30:00;;;;;;;4.23;3.67;;;41.20;37.30;;;;;;5006283;28;20465;-84
2022/06/03 10:32:27;;;;;;;3.57;3.27;;;41.40;36.80;;;;;;5005690;28;20484;-85
2022/06/03 10:35:04;;;;;;;3.73;3.40;;;40.70;37.40;;;;;;5007087;28;20485;-83
2022/06/03 10:37:31;;;;;;;4.00;3.70;;;40.80;37.20;;;;;;5018230;28;20463;-85
2022/06/03 10:39:59;;;;;;;3.40;3.10;;;41.40;37.10;;;;;;5016110;28;20462;-85
2022/06/03 10:42:25;;;;;;;3.50;3.30;;;41.40;35.70;;;;;;5008796;28;20477;-86
2022/06/03 10:44:56;;;;;;;3.93;3.63;;;40.50;37.10;;;;;;5010507;28;20450;-85
2022/06/03 10:47:32;;;;;;;3.90;3.60;;;39.80;37.50;;;;;;5016495;28;20450;-84
2022/06/03 10:50:01;;;;;;;3.60;3.30;;;40.90;37.30;;;;;;5014611;28;20480;-85
2022/06/03 11:01:09;;;;;;;3.83;3.50;;;37.70;39.90;;;;;;5011102;28;20934;-84
2022/06/03 11:03:41;;;;;;;4.37;3.87;;;37.20;40.40;;;;;;5013538;28;20522;-84
2022/06/03 11:06:14;;;;;;;6.60;3.50;;;35.40;42.40;;;;;;5011183;28;20681;-83
2022/06/03 11:08:49;;;;;;;3.47;3.10;;;35.00;43.70;;;;;;5013151;28;20502;-85
2022/06/03 11:11:31;;;;;;;4.07;3.70;;;35.40;43.00;;;;;;5010222;28;20442;-86
2022/06/03 11:13:58;;;;;;;3.83;3.53;;;34.60;43.20;;;;;;5013152;28;20489;-83
2022/06/03 11:16:26;;;;;;;4.30;3.90;;;34.10;44.20;;;;;;5027406;28;20445;-85
2022/06/03 11:18:54;;;;;;;4.40;4.00;;;33.30;45.70;;;;;;5011666;28;20485;-85
2022/06/03 11:21:24;;;;;;;4.30;3.90;;;32.50;47.30;;;;;;5017782;28;20434;-86
2022/06/03 11:23:51;;;;;;;4.20;3.90;;;31.70;48.90;;;;;;5017591;28;20438;-86
2022/06/03 11:26:19;;;;;;;4.13;3.83;;;31.30;49.40;;;;;;5011591;28;20459;-86
2022/06/03 11:28:52;;;;;;;4.70;4.00;;;31.10;49.80;;;;;;5016321;28;20453;-83
2022/06/03 11:31:23;;;;;;;5.17;4.47;;;31.10;50.50;;;;;;5023079;28;20467;-84
2022/06/03 11:33:57;;;;;;;4.93;4.43;;;31.00;50.60;;;;;;5016704;28;20588;-84
2022/06/03 11:36:30;;;;;;;8.40;4.30;;;30.90;51.70;;;;;;5008163;28;20446;-83
2022/06/03 11:39:01;;;;;;;5.77;4.70;;;30.80;52.30;;;;;;5011358;28;20469;-85
2022/06/03 11:41:33;;;;;;;4.80;4.30;;;30.60;52.60;;;;;;5017409;28;20507;-85
2022/06/03 11:44:08;;;;;;;4.37;4.07;;;30.40;53.20;;;;;;5020022;28;20461;-83
2022/06/03 11:46:38;;;;;;;4.53;4.10;;;30.40;53.60;;;;;;5017580;28;20995;-84
2022/06/03 11:49:05;;;;;;;4.87;4.47;;;30.20;53.70;;;;;;5007706;28;20473;-84
2022/06/03 11:51:32;;;;;;;4.53;3.63;;;30.20;53.60;;;;;;5005628;28;20462;-84
2022/06/03 11:53:59;;;;;;;4.80;4.20;;;30.30;53.90;;;;;;5025164;28;20474;-86
2022/06/03 11:56:31;;;;;;;4.40;4.00;;;30.30;54.90;;;;;;5025980;28;20454;-82
2022/06/03 11:59:04;;;;;;;4.60;4.20;;;30.20;56.40;;;;;;5026072;28;20455;-84
2022/06/03 12:01:42;;;;;;;4.57;4.27;;;30.00;56.60;;;;;;5016763;28;20436;-85
2022/06/03 12:04:17;;;;;;;8.20;5.17;;;30.00;56.40;;;;;;5024757;28;20431;-85
2022/06/03 12:06:49;;;;;;;5.60;5.00;;;30.40;56.50;;;;;;5017319;28;20434;-84
2022/06/03 12:09:30;;;;;;;4.93;4.30;;;30.70;56.50;;;;;;5020613;28;20459;-84
2022/06/03 12:14:58;;;;;;;5.17;4.73;;;30.90;56.50;;;;;;5023018;28;20480;-84
2022/06/03 12:17:33;;;;;;;8.17;5.27;;;31.00;56.10;;;;;;5018536;28;20454;-87
2022/06/03 12:20:16;;;;;;;5.80;4.30;;;30.90;56.00;;;;;;5010582;28;20455;-83
2022/06/03 12:22:43;;;;;;;5.87;5.27;;;30.80;56.60;;;;;;5004763;28;20443;-84
2022/06/03 12:25:43;;;;;;;5.70;4.83;;;31.00;56.70;;;;;;5009214;28;20439;-83
2022/06/03 12:28:19;;;;;;;5.90;5.30;;;30.90;56.20;;;;;;5010127;28;20797;-84
2022/06/03 12:30:50;;;;;;;5.40;4.87;;;31.10;56.10;;;;;;5009284;28;20458;-85
2022/06/03 12:33:27;;;;;;;5.20;4.43;;;31.30;55.80;;;;;;5011430;28;20439;-84
2022/06/03 12:36:01;;;;;;;5.50;5.00;;;31.20;55.40;;;;;;5018029;28;20473;-86
2022/06/03 12:38:51;;;;;;;5.10;4.50;;;31.20;55.60;;;;;;5019057;28;20468;-85
2022/06/03 12:41:51;;;;;;;5.00;4.60;;;31.00;55.20;;;;;;5008739;28;20450;-85
2022/06/03 12:45:14;;;;;;;15.60;5.90;;;30.30;55.60;;;;;;4978775;28;20847;-85
2022/06/03 12:47:48;;;;;;;5.47;4.97;;;30.10;57.10;;;;;;4937131;29;20445;-85
2022/06/03 12:50:33;;;;;;;5.40;4.90;;;30.20;57.40;;;;;;5007859;28;20988;-84
2022/06/03 12:53:17;;;;;;;4.80;4.43;;;30.20;57.50;;;;;;5006597;28;20479;-85
2022/06/03 12:55:45;;;;;;;5.30;4.80;;;30.10;57.70;;;;;;5009063;22;20499;-85
2022/06/03 12:58:45;;;;;;;4.93;4.53;;;30.00;57.60;;;;;;4997313;28;20454;-85
2022/06/03 13:01:13;;;;;;;5.63;4.80;;;29.90;57.70;;;;;;4993414;28;20451;-87
2022/06/03 13:03:43;;;;;;;7.73;7.03;;;29.70;58.20;;;;;;4994894;28;20658;-85
2022/06/03 13:06:10;;;;;;;6.90;6.03;;;29.50;58.70;;;;;;4993001;28;20854;-85
2022/06/03 13:11:43;;;;;;;7.10;4.77;;;29.30;59.70;;;;;;4993293;28;20433;-84
2022/06/03 13:14:28;;;;;;;5.07;4.70;;;29.30;60.90;;;;;;4994799;28;20483;-84
2022/06/03 13:16:55;;;;;;;6.70;5.80;;;29.20;61.20;;;;;;4994911;28;20450;-84
2022/06/03 13:19:56;;;;;;;5.40;5.00;;;29.30;62.10;;;;;;4994912;28;20526;-84
2022/06/03 13:22:47;;;;;;;5.37;4.93;;;29.70;61.00;;;;;;4994915;28;20451;-85
2022/06/03 13:25:32;;;;;;;5.00;4.50;;;30.20;59.90;;;;;;4995359;28;20459;-85
2022/06/03 13:28:31;;;;;;;4.97;4.47;;;30.30;59.90;;;;;;4995107;28;20446;-84
2022/06/03 13:31:18;;;;;;;6.73;5.50;;;30.20;59.30;;;;;;4994019;28;20451;-84
2022/06/03 13:34:27;;;;;;;5.10;4.60;;;29.80;59.90;;;;;;4995205;28;20538;-85
2022/06/03 13:37:29;;;;;;;5.50;4.53;;;29.50;60.70;;;;;;4953182;29;20449;-86
2022/06/03 13:40:20;;;;;;;5.27;4.87;;;29.20;58.60;;;;;;4952826;28;20539;-86
2022/06/03 13:43:24;;;;;;;7.87;5.40;;;28.80;57.90;;;;;;4991008;28;20446;-86
2022/06/03 13:46:03;;;;;;;5.07;4.57;;;28.60;61.70;;;;;;4997074;28;20853;-87
2022/06/03 13:48:55;;;;;;;5.30;4.90;;;28.60;61.40;;;;;;5003721;28;20521;-86
2022/06/03 13:51:30;;;;;;;5.80;5.20;;;28.60;60.30;;;;;;5004045;28;20453;-86
2022/06/03 13:54:02;;;;;;;9.33;5.77;;;28.50;62.10;;;;;;5014083;28;21038;-86
2022/06/03 13:56:30;;;;;;;6.80;5.40;;;28.50;62.40;;;;;;5011093;28;20474;-86
2022/06/03 13:59:00;;;;;;;6.70;6.10;;;28.50;63.40;;;;;;5028927;28;20450;-86
2022/06/03 14:01:30;;;;;;;6.17;5.57;;;28.30;64.50;;;;;;5024765;28;20459;-87
2022/06/03 14:04:02;;;;;;;6.03;5.53;;;28.40;65.90;;;;;;5025872;28;20446;-87
2022/06/03 14:06:34;;;;;;;6.47;6.00;;;28.30;65.30;;;;;;5025290;28;20481;-87
2022/06/03 14:09:11;;;;;;;7.33;6.73;;;28.20;65.00;;;;;;5024341;28;20453;-84
2022/06/03 14:11:41;;;;;;;6.10;5.50;;;28.30;64.70;;;;;;5018698;28;20536;-88
2022/06/03 14:14:16;;;;;;;5.70;5.20;;;28.30;64.40;;;;;;5020039;28;20457;-91
2022/06/03 14:16:50;;;;;;;5.60;5.03;;;28.30;63.80;;;;;;5026535;28;20766;-88
2022/06/03 14:19:45;;;;;;;6.20;5.60;;;28.30;63.40;;;;;;5033469;28;20449;-87
2022/06/03 14:22:24;;;;;;;6.07;5.57;;;28.30;64.50;;;;;;5007688;28;20457;-88
2022/06/03 14:25:01;;;;;;;6.47;5.43;;;28.20;63.70;;;;;;5016447;28;20461;-88
2022/06/03 14:27:35;;;;;;;6.33;5.73;;;28.20;64.00;;;;;;5020312;28;20441;-89
2022/06/03 14:30:10;;;;;;;6.60;6.10;;;28.10;64.30;;;;;;5026234;28;20438;-88
2022/06/03 14:32:44;;;;;;;6.50;5.90;;;28.00;64.10;;;;;;5029100;28;20414;-87
2022/06/03 14:35:16;;;;;;;6.30;5.70;;;27.80;66.20;;;;;;5037546;28;20495;-88
2022/06/03 14:37:49;;;;;;;7.03;5.67;;;27.60;65.00;;;;;;5025774;28;20457;-89
2022/06/03 14:40:24;;;;;;;7.90;5.67;;;27.60;66.40;;;;;;5021197;28;20527;-86
2022/06/03 14:42:58;;;;;;;7.53;6.03;;;27.60;66.50;;;;;;5018566;28;20472;-88
2022/06/03 14:45:27;;;;;;;6.30;5.20;;;27.80;65.60;;;;;;5017406;28;20465;-87
2022/06/03 14:47:58;;;;;;;5.73;5.13;;;28.00;65.30;;;;;;5017337;28;20464;-87